createdAt,value
2017-12-28T00:00:04.293Z,14.40
2017-12-28T00:02:32.786Z,17.20
2017-12-28T00:05:00.480Z,16.95
2017-12-28T00:07:28.228Z,17.52
2017-12-28T00:09:55.934Z,19.05
2017-12-28T00:12:24.398Z,15.77
2017-12-28T00:14:52.148Z,16.87
2017-12-28T00:17:19.912Z,19.77
2017-12-28T00:19:47.762Z,18.73
2017-12-28T00:22:15.510Z,20.35
2017-12-28T00:24:44.880Z,20.58
2017-12-28T00:27:13.406Z,19.05
2017-12-28T00:29:41.190Z,17.15
2017-12-28T00:32:08.932Z,19.02
2017-12-28T00:34:36.632Z,19.95
2017-12-28T00:37:05.144Z,19.27
2017-12-28T00:39:33.633Z,20.48
2017-12-28T00:42:01.342Z,18.70
2017-12-28T00:44:29.084Z,21.15
2017-12-28T00:46:56.781Z,17.25
2017-12-28T00:49:25.254Z,23.80
2017-12-28T00:51:53.774Z,21.30
2017-12-28T00:54:21.483Z,18.98
2017-12-28T00:56:49.959Z,17.35
2017-12-28T00:59:17.717Z,18.83
2017-12-28T01:01:45.450Z,15.75
2017-12-28T01:04:13.148Z,20.62
2017-12-28T01:06:41.689Z,17.27
2017-12-28T01:09:09.393Z,18.65
2017-12-28T01:11:37.110Z,18.37
2017-12-28T01:14:04.880Z,19.60
2017-12-28T01:16:32.590Z,20.00
2017-12-28T01:19:00.287Z,17.00
2017-12-28T01:21:28.057Z,20.83
2017-12-28T01:23:55.769Z,20.25
2017-12-28T01:26:23.469Z,19.58
2017-12-28T01:28:51.368Z,18.77
2017-12-28T01:31:19.061Z,17.37
2017-12-28T01:33:46.837Z,17.62
2017-12-28T01:36:14.587Z,19.50
2017-12-28T01:38:42.321Z,19.75
2017-12-28T01:41:10.782Z,22.60
2017-12-28T01:43:38.539Z,18.55
2017-12-28T01:46:06.255Z,22.25
2017-12-28T01:48:33.950Z,15.52
2017-12-28T01:51:02.017Z,17.60
2017-12-28T01:53:29.710Z,16.87
2017-12-28T01:55:58.166Z,14.95
2017-12-28T01:58:25.912Z,14.25
2017-12-28T02:00:53.619Z,17.05
2017-12-28T02:03:21.321Z,16.70
2017-12-28T02:05:49.094Z,15.48
2017-12-28T02:08:16.796Z,18.50
2017-12-28T02:10:45.337Z,16.25
2017-12-28T02:13:15.146Z,17.02
2017-12-28T02:15:42.858Z,13.60
2017-12-28T02:18:11.330Z,18.12
2017-12-28T02:20:39.860Z,13.82
2017-12-28T02:23:07.565Z,15.27
2017-12-28T02:25:36.075Z,14.80
2017-12-28T02:28:03.821Z,16.23
2017-12-28T02:30:31.533Z,13.40
2017-12-28T02:32:59.224Z,15.32
2017-12-28T02:35:27.752Z,17.25
2017-12-28T02:37:55.751Z,12.60
2017-12-28T02:40:24.249Z,17.35
2017-12-28T02:42:52.811Z,14.52
2017-12-28T02:45:20.533Z,16.67
2017-12-28T02:47:48.243Z,13.68
2017-12-28T02:50:16.782Z,13.68
2017-12-28T02:52:44.501Z,12.55
2017-12-28T02:55:12.194Z,20.52
2017-12-28T02:57:39.953Z,17.15
2017-12-28T03:00:07.673Z,13.75
2017-12-28T03:02:36.134Z,15.85
2017-12-28T03:05:03.893Z,13.75
2017-12-28T03:07:31.602Z,15.02
2017-12-28T03:09:59.301Z,19.50
2017-12-28T03:12:27.062Z,16.08
2017-12-28T03:14:54.764Z,18.48
2017-12-28T03:17:23.247Z,15.82
2017-12-28T03:19:51.018Z,13.93
2017-12-28T03:22:18.720Z,14.10
2017-12-28T03:24:46.434Z,15.30
2017-12-28T03:27:14.199Z,17.30
2017-12-28T03:29:41.895Z,14.23
2017-12-28T03:32:09.601Z,12.43
2017-12-28T03:34:37.401Z,17.58
2017-12-28T03:37:05.089Z,13.45
2017-12-28T03:39:32.778Z,12.00
2017-12-28T03:42:01.325Z,14.60
2017-12-28T03:44:29.068Z,16.33
2017-12-28T03:46:56.764Z,15.25
2017-12-28T03:49:24.850Z,15.80
2017-12-28T03:51:53.312Z,15.60
2017-12-28T03:54:21.063Z,14.50
2017-12-28T03:56:48.820Z,11.00
2017-12-28T03:59:16.505Z,15.25
2017-12-28T04:01:44.990Z,12.98
2017-12-28T04:04:13.534Z,13.30
2017-12-28T04:06:41.248Z,16.08
2017-12-28T04:09:08.973Z,13.10
2017-12-28T04:11:36.731Z,13.55
2017-12-28T04:14:04.463Z,15.55
2017-12-28T04:16:32.183Z,15.93
2017-12-28T04:19:01.351Z,17.73
2017-12-28T04:21:29.091Z,15.32
2017-12-28T04:23:56.808Z,16.77
2017-12-28T04:26:24.577Z,18.08
2017-12-28T04:28:52.284Z,16.50
2017-12-28T04:31:19.985Z,12.18
2017-12-28T04:33:48.564Z,15.65
2017-12-28T04:36:17.042Z,13.00
2017-12-28T04:38:45.509Z,11.65
2017-12-28T04:41:14.025Z,11.40
2017-12-28T04:43:41.744Z,10.88
2017-12-28T04:46:09.440Z,11.40
2017-12-28T04:48:37.209Z,10.50
2017-12-28T04:51:04.910Z,11.00
2017-12-28T04:53:32.644Z,11.25
2017-12-28T04:56:00.470Z,11.75
2017-12-28T04:58:28.173Z,10.55
2017-12-28T05:00:55.866Z,9.77
2017-12-28T05:03:24.477Z,10.98
2017-12-28T05:05:52.184Z,11.73
2017-12-28T05:08:19.950Z,11.05
2017-12-28T05:10:47.706Z,12.20
2017-12-28T05:13:15.422Z,13.15
2017-12-28T05:15:43.140Z,15.73
2017-12-28T05:18:11.005Z,14.32
2017-12-28T05:20:38.718Z,12.32
2017-12-28T05:23:06.414Z,12.27
2017-12-28T05:25:34.171Z,10.98
2017-12-28T05:28:01.874Z,11.02
2017-12-28T05:30:30.383Z,10.38
2017-12-28T05:32:58.199Z,11.45
2017-12-28T05:35:25.908Z,12.43
2017-12-28T05:37:53.624Z,11.45
2017-12-28T05:40:21.399Z,9.45
2017-12-28T05:42:49.139Z,10.13
2017-12-28T05:45:16.835Z,12.82
2017-12-28T05:47:44.598Z,11.10
2017-12-28T05:50:12.298Z,11.68
2017-12-28T05:52:40.053Z,11.07
2017-12-28T05:55:07.822Z,11.80
2017-12-28T05:57:35.555Z,11.50
2017-12-28T06:00:03.287Z,11.75
2017-12-28T06:02:31.050Z,14.10
2017-12-28T06:04:59.518Z,10.90
2017-12-28T06:07:27.239Z,10.85
2017-12-28T06:09:54.989Z,11.02
2017-12-28T06:12:22.690Z,11.23
2017-12-28T06:14:50.438Z,11.77
2017-12-28T06:17:18.201Z,9.65
2017-12-28T06:19:45.914Z,10.70
2017-12-28T06:22:13.622Z,11.38
2017-12-28T06:24:41.391Z,9.35
2017-12-28T06:27:09.111Z,10.23
2017-12-28T06:29:36.849Z,10.43
2017-12-28T06:32:04.609Z,11.18
2017-12-28T06:34:32.328Z,10.82
2017-12-28T06:37:00.045Z,9.65
2017-12-28T06:39:27.803Z,9.93
2017-12-28T06:41:55.507Z,12.57
2017-12-28T06:44:23.204Z,13.35
2017-12-28T06:46:51.736Z,12.82
2017-12-28T06:49:19.450Z,19.95
2017-12-28T06:51:47.137Z,16.65
2017-12-28T06:54:14.889Z,12.45
2017-12-28T06:56:43.403Z,14.63
2017-12-28T06:59:11.147Z,13.68
2017-12-28T07:01:40.354Z,12.80
2017-12-28T07:04:09.854Z,12.15
2017-12-28T07:06:39.674Z,13.93
2017-12-28T07:09:08.366Z,11.55
2017-12-28T07:14:28.290Z,16.45
2017-12-28T07:22:14.086Z,21.30
2017-12-28T07:27:18.548Z,28.65
2017-12-28T07:29:50.008Z,21.17
2017-12-28T07:32:18.419Z,16.65
2017-12-28T07:34:46.628Z,21.17
2017-12-28T07:37:16.765Z,18.77
2017-12-28T07:39:44.786Z,16.37
2017-12-28T07:42:12.602Z,17.48
2017-12-28T07:44:41.086Z,14.52
2017-12-28T07:47:10.293Z,19.23
2017-12-28T07:49:38.155Z,17.42
2017-12-28T07:52:06.058Z,22.73
2017-12-28T07:54:33.949Z,19.55
2017-12-28T07:57:01.741Z,17.67
2017-12-28T07:59:29.663Z,21.85
2017-12-28T08:01:57.442Z,22.73
2017-12-28T08:04:25.160Z,22.80
2017-12-28T08:06:53.411Z,20.42
2017-12-28T08:09:21.239Z,24.33
2017-12-28T08:11:49.453Z,20.77
2017-12-28T08:14:17.484Z,22.35
2017-12-28T08:16:45.245Z,20.62
2017-12-28T08:19:13.825Z,20.23
2017-12-28T08:21:42.405Z,22.45
2017-12-28T08:24:11.821Z,26.12
2017-12-28T08:26:41.865Z,27.33
2017-12-28T08:29:10.641Z,24.15
2017-12-28T08:31:40.173Z,23.10
2017-12-28T08:44:07.640Z,45.88
2017-12-28T08:46:35.406Z,37.63
2017-12-28T08:49:03.141Z,28.67
2017-12-28T08:51:31.598Z,27.58
2017-12-28T08:53:59.346Z,28.65
2017-12-28T08:56:27.044Z,27.17
2017-12-28T08:58:55.496Z,24.67
2017-12-28T09:01:23.301Z,26.33
2017-12-28T09:03:51.001Z,29.00
2017-12-28T09:06:18.688Z,29.70
2017-12-28T09:08:47.214Z,27.85
2017-12-28T09:11:14.968Z,33.20
2017-12-28T09:13:42.834Z,31.12
2017-12-28T09:16:11.207Z,38.80
2017-12-28T09:18:39.145Z,47.72
2017-12-28T09:21:08.137Z,38.15
2017-12-28T09:23:36.738Z,37.13
2017-12-28T09:26:04.896Z,40.67
2017-12-28T09:28:33.843Z,41.70
2017-12-28T09:31:05.041Z,50.50
2017-12-28T09:33:37.702Z,50.47
2017-12-28T09:36:06.357Z,50.03
2017-12-28T09:38:35.634Z,44.30
2017-12-28T09:41:03.385Z,49.65
2017-12-28T09:43:31.147Z,36.67
2017-12-28T09:45:58.898Z,36.22
2017-12-28T09:48:26.625Z,47.25
2017-12-28T09:50:55.145Z,35.08
2017-12-28T09:53:22.841Z,36.10
2017-12-28T09:55:50.585Z,31.50
2017-12-28T09:58:18.397Z,42.20
2017-12-28T10:00:46.119Z,36.28
2017-12-28T10:03:13.854Z,30.10
2017-12-28T10:05:41.696Z,30.27
2017-12-28T10:08:14.650Z,37.53
2017-12-28T10:13:25.202Z,29.80
2017-12-28T10:15:53.225Z,37.28
2017-12-28T10:18:25.522Z,26.73
2017-12-28T10:20:56.458Z,39.50
2017-12-28T10:23:28.628Z,51.00
2017-12-28T10:26:02.191Z,41.75
2017-12-28T10:28:44.859Z,44.28
2017-12-28T10:42:42.657Z,39.97
2017-12-28T10:45:14.506Z,85.35
2017-12-28T10:47:50.472Z,34.13
2017-12-28T10:50:22.400Z,30.35
2017-12-28T10:52:50.475Z,47.28
2017-12-28T10:55:18.756Z,53.38
2017-12-28T10:57:47.908Z,64.32
2017-12-28T11:00:16.777Z,35.13
2017-12-28T11:02:45.177Z,55.20
2017-12-28T11:05:12.908Z,32.35
2017-12-28T11:07:40.668Z,29.42
2017-12-28T11:10:08.366Z,30.30
2017-12-28T11:12:36.078Z,33.95
2017-12-28T11:15:04.947Z,36.90
2017-12-28T11:17:32.765Z,35.00
2017-12-28T11:20:01.226Z,24.77
2017-12-28T11:22:29.897Z,30.25
2017-12-28T11:24:58.464Z,25.90
2017-12-28T11:27:26.269Z,30.12
2017-12-28T11:29:54.785Z,41.42
2017-12-28T11:32:23.260Z,37.65
2017-12-28T11:34:51.756Z,37.67
2017-12-28T11:37:19.509Z,34.50
2017-12-28T11:39:47.207Z,37.63
2017-12-28T11:42:15.773Z,44.72
2017-12-28T11:44:43.564Z,40.63
2017-12-28T11:47:12.017Z,38.22
2017-12-28T11:49:40.652Z,34.65
2017-12-28T11:52:08.425Z,56.75
2017-12-28T11:54:41.972Z,31.33
2017-12-28T11:57:13.369Z,39.00
2017-12-28T11:59:41.187Z,33.90
2017-12-28T12:02:12.369Z,36.50
2017-12-28T12:04:45.860Z,30.45
2017-12-28T12:07:13.544Z,34.13
2017-12-28T12:09:46.893Z,30.92
2017-12-28T12:12:14.604Z,33.45
2017-12-28T12:14:42.305Z,34.35
2017-12-28T12:17:10.829Z,32.45
2017-12-28T12:19:38.538Z,30.75
2017-12-28T12:22:06.270Z,37.15
2017-12-28T12:24:34.017Z,32.78
2017-12-28T12:27:01.704Z,26.83
2017-12-28T12:29:29.401Z,28.92
2017-12-28T12:31:57.156Z,24.00
2017-12-28T12:34:24.922Z,22.80
2017-12-28T12:36:52.767Z,27.02
2017-12-28T12:39:21.299Z,21.48
2017-12-28T12:41:49.674Z,24.75
2017-12-28T12:44:17.369Z,24.25
2017-12-28T12:46:45.235Z,24.60
2017-12-28T12:49:12.920Z,17.42
2017-12-28T12:51:41.382Z,22.87
2017-12-28T12:54:09.153Z,20.52
2017-12-28T12:56:37.638Z,20.27
2017-12-28T12:59:06.951Z,18.33
2017-12-28T13:01:34.697Z,11.25
2017-12-28T13:04:02.417Z,12.50
2017-12-28T13:06:40.056Z,13.05
2017-12-28T13:09:08.539Z,12.18
2017-12-28T13:11:36.239Z,10.80
2017-12-28T13:14:06.637Z,9.25
2017-12-28T13:16:34.381Z,9.30
2017-12-28T13:19:03.826Z,12.13
2017-12-28T13:21:31.716Z,11.02
2017-12-28T13:24:00.192Z,9.60
2017-12-28T13:26:27.925Z,9.45
2017-12-28T13:28:55.721Z,11.12
2017-12-28T13:31:24.386Z,13.25
2017-12-28T13:33:52.097Z,15.13
2017-12-28T13:36:19.853Z,15.40
2017-12-28T13:38:47.560Z,14.98
2017-12-28T13:41:15.292Z,13.90
2017-12-28T13:43:43.038Z,10.80
2017-12-28T13:46:10.809Z,11.15
2017-12-28T13:48:38.605Z,13.50
2017-12-28T13:51:06.352Z,9.93
2017-12-28T13:53:34.047Z,9.73
2017-12-28T13:56:01.781Z,10.90
2017-12-28T13:58:29.545Z,9.02
2017-12-28T14:00:57.268Z,9.55
2017-12-28T14:03:25.009Z,10.23
2017-12-28T14:05:53.557Z,7.78
2017-12-28T14:08:21.244Z,9.77
2017-12-28T14:10:49.755Z,8.73
2017-12-28T14:13:18.562Z,10.30
2017-12-28T14:15:47.262Z,10.85
2017-12-28T14:18:15.236Z,10.32
2017-12-28T14:20:49.011Z,9.15
2017-12-28T14:23:17.780Z,9.00
2017-12-28T14:25:45.504Z,11.93
2017-12-28T14:28:14.041Z,10.65
2017-12-28T14:30:41.817Z,14.18
2017-12-28T14:33:09.609Z,11.02
2017-12-28T14:35:38.424Z,11.98
2017-12-28T14:38:06.131Z,13.65
2017-12-28T14:40:33.887Z,10.98
2017-12-28T14:43:04.516Z,11.15
2017-12-28T14:45:32.229Z,9.88
2017-12-28T14:47:59.945Z,11.10
2017-12-28T14:50:27.769Z,9.52
2017-12-28T14:52:55.499Z,9.63
2017-12-28T14:55:23.973Z,8.27
2017-12-28T14:57:52.521Z,10.02
2017-12-28T15:00:20.257Z,9.45
2017-12-28T15:02:47.966Z,10.43
2017-12-28T15:05:15.772Z,8.52
2017-12-28T15:07:43.591Z,6.65
2017-12-28T15:10:13.100Z,7.10
2017-12-28T15:12:41.005Z,9.25
2017-12-28T15:15:08.817Z,7.57
2017-12-28T15:17:36.674Z,14.05
2017-12-28T15:20:05.158Z,13.48
2017-12-28T15:22:33.878Z,13.50
2017-12-28T15:25:01.872Z,11.35
2017-12-28T15:27:30.402Z,11.43
2017-12-28T15:29:59.059Z,9.52
2017-12-28T15:32:26.879Z,9.35
2017-12-28T15:34:56.262Z,9.38
2017-12-28T15:37:24.942Z,12.82
2017-12-28T15:39:55.442Z,10.95
2017-12-28T15:42:24.700Z,10.90
2017-12-28T15:44:52.721Z,14.50
2017-12-28T15:47:21.332Z,12.55
2017-12-28T15:49:50.111Z,9.70
2017-12-28T15:52:17.964Z,10.57
2017-12-28T15:54:46.593Z,12.70
2017-12-28T15:57:14.441Z,15.63
2017-12-28T15:59:43.153Z,16.48
2017-12-28T16:02:11.818Z,22.52
2017-12-28T16:04:39.639Z,23.15
2017-12-28T16:07:10.427Z,18.25
2017-12-28T16:09:38.263Z,22.48
2017-12-28T16:12:06.000Z,33.03
2017-12-28T16:14:33.732Z,33.75
2017-12-28T16:17:01.593Z,19.20
2017-12-28T16:19:29.357Z,15.60
2017-12-28T16:21:57.118Z,20.30
2017-12-28T16:24:24.934Z,24.58
2017-12-28T16:26:53.276Z,18.98
2017-12-28T16:29:22.580Z,17.90
2017-12-28T16:31:50.402Z,20.60
2017-12-28T16:34:18.786Z,16.52
2017-12-28T16:36:47.656Z,18.25
2017-12-28T16:39:15.440Z,17.85
2017-12-28T16:41:43.898Z,18.65
2017-12-28T16:44:11.643Z,21.00
2017-12-28T16:46:39.419Z,15.63
2017-12-28T16:49:07.164Z,16.17
2017-12-28T16:51:36.296Z,21.23
2017-12-28T16:54:04.260Z,15.93
2017-12-28T16:56:32.028Z,24.08
2017-12-28T16:59:00.733Z,13.93
2017-12-28T17:01:30.275Z,19.42
2017-12-28T17:03:58.318Z,12.07
2017-12-28T17:06:26.026Z,13.38
2017-12-28T17:08:53.797Z,16.00
2017-12-28T17:11:21.557Z,14.98
2017-12-28T17:13:49.753Z,17.20
2017-12-28T17:16:18.315Z,16.00
2017-12-28T17:18:46.137Z,17.17
2017-12-28T17:21:13.870Z,22.87
2017-12-28T17:23:42.393Z,20.88
2017-12-28T17:26:10.132Z,15.05
2017-12-28T17:28:37.887Z,16.27
2017-12-28T17:31:05.657Z,17.70
2017-12-28T17:33:33.374Z,19.25
2017-12-28T17:36:01.358Z,13.95
2017-12-28T17:38:29.959Z,19.42
2017-12-28T17:40:57.728Z,17.02
2017-12-28T17:43:25.444Z,18.23
2017-12-28T17:45:53.283Z,21.27
2017-12-28T17:48:21.018Z,19.35
2017-12-28T17:50:48.844Z,14.90
2017-12-28T17:53:17.391Z,15.43
2017-12-28T17:55:45.114Z,16.40
2017-12-28T17:58:12.830Z,20.27
2017-12-28T18:00:41.470Z,13.77
2017-12-28T18:03:09.204Z,16.83
2017-12-28T18:05:36.969Z,16.05
2017-12-28T18:08:04.761Z,25.02
2017-12-28T18:10:32.481Z,17.37
2017-12-28T18:13:01.953Z,15.85
2017-12-28T18:15:29.748Z,18.90
2017-12-28T18:17:57.500Z,15.10
2017-12-28T18:20:26.666Z,18.80
2017-12-28T18:22:54.601Z,20.50
2017-12-28T18:25:22.315Z,16.42
2017-12-28T18:27:50.021Z,15.48
2017-12-28T18:30:18.654Z,16.05
2017-12-28T18:32:47.174Z,14.85
2017-12-28T18:35:14.968Z,16.15
2017-12-28T18:37:42.732Z,15.48
2017-12-28T18:40:10.460Z,18.48
2017-12-28T18:42:38.734Z,18.70
2017-12-28T18:45:06.531Z,17.75
2017-12-28T18:47:34.262Z,17.90
2017-12-28T18:50:01.994Z,16.27
2017-12-28T18:52:29.865Z,18.17
2017-12-28T18:54:57.959Z,19.00
2017-12-28T18:57:26.687Z,15.25
2017-12-28T18:59:54.631Z,17.30
2017-12-28T19:02:23.170Z,17.62
2017-12-28T19:04:50.916Z,19.35
2017-12-28T19:07:18.702Z,16.58
2017-12-28T19:09:46.458Z,17.20
2017-12-28T19:12:14.194Z,20.98
2017-12-28T19:14:44.652Z,16.02
2017-12-28T19:17:12.425Z,17.62
2017-12-28T19:19:40.174Z,19.20
2017-12-28T19:22:07.957Z,18.67
2017-12-28T19:24:35.658Z,22.33
2017-12-28T19:27:04.221Z,22.02
2017-12-28T19:29:34.426Z,25.08
2017-12-28T19:32:02.235Z,16.70
2017-12-28T19:34:30.738Z,17.87
2017-12-28T19:36:59.659Z,17.92
2017-12-28T19:39:29.133Z,17.83
2017-12-28T19:41:56.901Z,15.13
2017-12-28T19:44:24.673Z,14.90
2017-12-28T19:46:52.384Z,12.50
2017-12-28T19:49:20.842Z,19.35
2017-12-28T19:51:48.771Z,14.95
2017-12-28T19:54:16.536Z,15.13
2017-12-28T19:56:44.267Z,19.67
2017-12-28T19:59:12.411Z,14.55
2017-12-28T20:01:40.910Z,20.62
2017-12-28T20:04:09.434Z,26.98
2017-12-28T20:06:37.249Z,24.05
2017-12-28T20:09:05.013Z,24.35
2017-12-28T20:11:33.475Z,24.48
2017-12-28T20:14:01.454Z,17.90
2017-12-28T20:16:29.917Z,16.58
2017-12-28T20:18:57.616Z,15.48
2017-12-28T20:21:25.388Z,19.30
2017-12-28T20:23:53.101Z,16.50
2017-12-28T20:26:20.820Z,14.18
2017-12-28T20:28:48.593Z,18.98
2017-12-28T20:31:16.331Z,17.35
2017-12-28T20:33:44.033Z,16.30
2017-12-28T20:36:11.892Z,14.35
2017-12-28T20:38:39.635Z,12.48
2017-12-28T20:41:07.482Z,16.15
2017-12-28T20:43:35.299Z,19.27
2017-12-28T20:46:06.243Z,16.37
2017-12-28T20:48:33.960Z,15.95
2017-12-28T20:51:02.589Z,17.30
2017-12-28T20:53:31.073Z,31.12
2017-12-28T20:55:59.568Z,23.12
2017-12-28T20:58:28.246Z,13.27
2017-12-28T21:00:55.964Z,14.70
2017-12-28T21:03:23.876Z,19.70
2017-12-28T21:05:51.640Z,18.60
2017-12-28T21:08:19.359Z,16.40
2017-12-28T21:10:47.075Z,20.30
2017-12-28T21:13:14.832Z,20.02
2017-12-28T21:15:42.522Z,17.83
2017-12-28T21:18:10.216Z,16.15
2017-12-28T21:20:38.872Z,16.12
2017-12-28T21:23:06.697Z,14.35
2017-12-28T21:25:34.397Z,13.02
2017-12-28T21:28:02.151Z,15.75
2017-12-28T21:30:29.850Z,13.02
2017-12-28T21:32:58.301Z,8.65
2017-12-28T21:35:26.047Z,8.73
2017-12-28T21:37:53.770Z,10.65
2017-12-28T21:40:21.467Z,12.93
2017-12-28T21:42:49.201Z,8.50
2017-12-28T21:45:16.984Z,13.45
2017-12-28T21:47:45.499Z,14.18
2017-12-28T21:50:14.010Z,10.38
2017-12-28T21:52:41.879Z,14.13
2017-12-28T21:55:09.601Z,9.68
2017-12-28T21:57:37.358Z,16.25
2017-12-28T22:00:05.068Z,19.70
2017-12-28T22:02:33.585Z,20.65
2017-12-28T22:05:01.438Z,17.27
2017-12-28T22:07:29.145Z,17.80
2017-12-28T22:09:57.598Z,15.88
2017-12-28T22:12:25.480Z,13.45
2017-12-28T22:14:54.204Z,14.95
2017-12-28T22:17:21.930Z,17.33
2017-12-28T22:19:50.470Z,13.80
2017-12-28T22:22:18.201Z,11.50
2017-12-28T22:24:45.902Z,16.52
2017-12-28T22:27:13.689Z,13.62
2017-12-28T22:29:42.234Z,12.13
2017-12-28T22:32:09.944Z,10.18
2017-12-28T22:34:37.697Z,16.52
2017-12-28T22:37:05.407Z,8.13
2017-12-28T22:39:33.105Z,10.40
2017-12-28T22:42:01.697Z,11.02
2017-12-28T22:44:30.160Z,7.97
2017-12-28T22:46:57.840Z,7.37
2017-12-28T22:49:26.415Z,11.55
2017-12-28T22:51:54.992Z,13.73
2017-12-28T22:54:22.697Z,11.52
2017-12-28T22:56:50.464Z,13.40
2017-12-28T22:59:18.154Z,13.88
2017-12-28T23:01:45.864Z,14.38
2017-12-28T23:04:13.614Z,16.75
2017-12-28T23:06:41.305Z,17.90
2017-12-28T23:09:09.007Z,18.80
2017-12-28T23:11:37.525Z,12.18
2017-12-28T23:14:05.235Z,12.82
2017-12-28T23:16:32.953Z,15.45
2017-12-28T23:19:00.730Z,13.82
2017-12-28T23:21:29.177Z,10.45
2017-12-28T23:23:56.863Z,17.05
2017-12-28T23:26:24.610Z,13.35
2017-12-28T23:28:52.335Z,15.55
2017-12-28T23:31:20.798Z,12.20
2017-12-28T23:33:48.541Z,11.45
2017-12-28T23:36:16.254Z,15.23
2017-12-28T23:38:43.946Z,11.90
2017-12-28T23:41:11.686Z,14.52
2017-12-28T23:43:39.388Z,14.75
2017-12-28T23:46:07.081Z,10.05
2017-12-28T23:48:35.601Z,11.85
2017-12-28T23:51:03.310Z,13.30
2017-12-28T23:53:31.781Z,8.65
2017-12-28T23:55:59.578Z,13.57
2017-12-28T23:58:27.272Z,13.90
